createdAt,value
2023-05-10T00:02:21.509Z,13.48
2023-05-10T00:05:08.379Z,14.68
2023-05-10T00:07:54.582Z,11.55
2023-05-10T00:10:41.827Z,13.75
2023-05-10T00:13:27.725Z,14.82
2023-05-10T00:16:14.051Z,13.82
2023-05-10T00:19:01.840Z,16.58
2023-05-10T00:21:48.119Z,17.88
2023-05-10T00:24:34.225Z,16.55
2023-05-10T00:27:26.824Z,16.40
2023-05-10T00:30:20.448Z,16.63
2023-05-10T00:33:13.393Z,19.90
2023-05-10T00:36:08.343Z,22.20
2023-05-10T00:39:01.362Z,21.77
2023-05-10T00:41:53.764Z,27.60
2023-05-10T00:44:47.523Z,23.17
2023-05-10T00:47:40.383Z,25.40
2023-05-10T00:50:33.096Z,25.65
2023-05-10T00:53:27.343Z,22.52
2023-05-10T00:56:21.380Z,20.80
2023-05-10T00:59:13.814Z,23.38
2023-05-10T01:02:07.247Z,26.20
2023-05-10T01:04:59.702Z,27.38
2023-05-10T01:07:53.026Z,32.50
2023-05-10T01:10:47.302Z,25.20
2023-05-10T01:13:41.191Z,26.48
2023-05-10T01:19:54.774Z,31.17
2023-05-10T01:26:14.245Z,27.70
2023-05-10T01:29:21.342Z,32.95
2023-05-10T01:35:34.399Z,37.38
2023-05-10T01:41:45.144Z,43.50
2023-05-10T01:44:39.921Z,41.05
2023-05-10T01:47:35.699Z,46.88
2023-05-10T01:50:32.297Z,40.00
2023-05-10T01:53:25.612Z,41.05
2023-05-10T01:56:18.902Z,39.78
2023-05-10T01:59:15.061Z,46.15
2023-05-10T02:05:20.895Z,47.28
2023-05-10T02:08:15.719Z,45.60
2023-05-10T02:14:20.844Z,7.00
2023-05-10T02:17:14.586Z,11.02
2023-05-10T02:20:10.169Z,15.93
2023-05-10T02:26:07.675Z,19.65
2023-05-10T02:29:00.482Z,7.40
2023-05-10T02:31:55.090Z,4.63
2023-05-10T02:38:35.185Z,5.60
2023-05-10T02:44:43.077Z,6.05
2023-05-10T02:47:36.123Z,6.03
2023-05-10T02:50:30.131Z,3.45
2023-05-10T02:53:24.671Z,6.05
2023-05-10T02:56:22.565Z,9.32
2023-05-10T02:59:15.036Z,8.95
2023-05-10T03:02:09.210Z,13.98
2023-05-10T03:05:01.956Z,15.23
2023-05-10T03:07:53.481Z,20.60
2023-05-10T03:10:56.542Z,15.50
2023-05-10T03:14:18.015Z,16.65
2023-05-10T03:17:17.440Z,19.08
2023-05-10T03:20:13.087Z,29.00
2023-05-10T03:26:22.639Z,23.98
2023-05-10T03:29:16.496Z,25.83
2023-05-10T03:32:09.108Z,37.03
2023-05-10T03:35:03.332Z,23.55
2023-05-10T03:37:55.746Z,44.20
2023-05-10T03:40:47.638Z,26.50
2023-05-10T03:43:40.682Z,27.88
2023-05-10T03:46:32.989Z,23.08
2023-05-10T03:49:26.181Z,24.75
2023-05-10T03:55:35.417Z,30.17
2023-05-10T04:01:44.259Z,21.17
2023-05-10T04:07:50.223Z,16.85
2023-05-10T04:10:44.322Z,20.60
2023-05-10T04:13:37.366Z,19.15
2023-05-10T04:16:30.143Z,14.98
2023-05-10T04:19:22.883Z,15.48
2023-05-10T04:22:15.885Z,15.02
2023-05-10T04:25:10.104Z,9.88
2023-05-10T04:28:04.223Z,5.82
2023-05-10T04:31:03.188Z,4.50
2023-05-10T04:37:31.848Z,3.03
2023-05-10T04:41:02.168Z,2.78
2023-05-10T04:43:56.422Z,2.88
2023-05-10T04:47:06.221Z,2.50
2023-05-10T04:49:55.789Z,2.45
2023-05-10T04:52:49.100Z,5.22
2023-05-10T04:55:41.977Z,2.85
2023-05-10T04:58:34.752Z,3.53
2023-05-10T05:01:28.014Z,4.90
2023-05-10T05:04:20.864Z,4.53
2023-05-10T05:07:13.679Z,5.53
2023-05-10T05:10:06.835Z,5.65
2023-05-10T05:13:31.834Z,3.65
2023-05-10T05:16:24.804Z,3.58
2023-05-10T05:19:34.099Z,5.50
2023-05-10T05:22:28.651Z,2.83
2023-05-10T05:28:42.794Z,3.90
2023-05-10T05:31:35.943Z,2.95
2023-05-10T05:34:28.649Z,2.33
2023-05-10T05:37:23.367Z,3.28
2023-05-10T05:40:17.249Z,2.83
2023-05-10T05:43:09.992Z,3.85
2023-05-10T05:46:02.929Z,5.35
2023-05-10T05:48:55.700Z,3.35
2023-05-10T05:51:48.380Z,2.30
2023-05-10T05:54:41.349Z,4.63
2023-05-10T06:00:52.754Z,4.13
2023-05-10T06:06:39.162Z,3.00
2023-05-10T06:09:32.066Z,2.15
2023-05-10T06:15:35.749Z,2.75
2023-05-10T06:18:29.354Z,2.70
2023-05-10T06:21:22.074Z,4.05
2023-05-10T06:24:15.063Z,3.55
2023-05-10T06:27:08.315Z,3.13
2023-05-10T06:33:13.331Z,5.10
2023-05-10T06:36:07.539Z,2.13
2023-05-10T06:38:59.848Z,2.50
2023-05-10T06:41:53.088Z,1.75
2023-05-10T06:44:45.910Z,3.92
2023-05-10T06:47:39.524Z,2.78
2023-05-10T06:50:32.519Z,4.10
2023-05-10T06:53:26.224Z,2.38
2023-05-10T06:59:17.329Z,2.92
2023-05-10T07:02:10.266Z,3.65
2023-05-10T07:05:15.133Z,2.67
2023-05-10T07:08:08.368Z,2.42
2023-05-10T07:11:07.975Z,1.25
2023-05-10T07:14:00.651Z,6.03
2023-05-10T07:20:14.562Z,2.95
2023-05-10T07:26:33.378Z,2.28
2023-05-10T07:32:51.152Z,4.78
2023-05-10T07:38:52.770Z,4.35
2023-05-10T07:44:58.645Z,5.25
2023-05-10T07:51:03.323Z,4.75
2023-05-10T07:53:55.845Z,4.85
2023-05-10T07:56:49.126Z,7.05
2023-05-10T07:59:42.141Z,8.55
2023-05-10T08:02:36.884Z,7.68
2023-05-10T08:05:55.572Z,6.78
2023-05-10T08:08:50.355Z,9.40
2023-05-10T08:11:42.919Z,10.15
2023-05-10T08:14:37.569Z,7.45
2023-05-10T08:17:30.056Z,9.02
2023-05-10T08:23:33.089Z,8.15
2023-05-10T08:26:25.972Z,11.90
2023-05-10T08:29:18.743Z,12.25
2023-05-10T08:32:10.796Z,11.45
2023-05-10T08:35:03.724Z,14.48
2023-05-10T08:37:54.035Z,10.50
2023-05-10T08:40:48.628Z,11.75
2023-05-10T08:43:42.452Z,13.30
2023-05-10T08:46:37.538Z,16.95
2023-05-10T08:49:33.387Z,15.77
2023-05-10T08:52:27.783Z,14.85
2023-05-10T08:55:39.447Z,13.95
2023-05-10T08:58:28.503Z,14.18
2023-05-10T09:01:21.807Z,13.68
2023-05-10T09:04:15.069Z,14.38
2023-05-10T09:07:08.251Z,19.40
2023-05-10T09:10:01.337Z,14.15
2023-05-10T09:12:54.995Z,17.98
2023-05-10T09:15:49.972Z,19.15
2023-05-10T09:18:42.618Z,19.63
2023-05-10T09:21:36.385Z,24.95
2023-05-10T09:27:41.827Z,21.52
2023-05-10T09:30:35.323Z,17.60
2023-05-10T09:33:29.042Z,19.58
2023-05-10T09:36:21.828Z,20.33
2023-05-10T09:39:15.226Z,21.40
2023-05-10T09:42:10.869Z,20.02
2023-05-10T09:45:05.506Z,16.75
2023-05-10T09:47:58.563Z,20.10
2023-05-10T09:54:21.932Z,16.77
2023-05-10T09:57:20.966Z,15.87
2023-05-10T10:00:20.906Z,17.13
2023-05-10T10:06:38.426Z,16.80
2023-05-10T10:12:51.546Z,13.07
2023-05-10T10:15:44.385Z,10.05
2023-05-10T10:18:39.596Z,12.05
2023-05-10T10:21:31.948Z,12.48
2023-05-10T10:27:45.293Z,13.10
2023-05-10T10:30:43.158Z,13.10
2023-05-10T10:33:53.685Z,12.82
2023-05-10T10:36:43.578Z,9.68
2023-05-10T10:39:30.227Z,11.32
2023-05-10T10:42:16.416Z,11.45
2023-05-10T10:45:14.235Z,13.18
2023-05-10T10:48:28.730Z,12.13
2023-05-10T10:51:15.172Z,10.40
2023-05-10T10:54:11.072Z,10.40
2023-05-10T10:57:12.557Z,9.43
2023-05-10T11:03:29.863Z,7.63
2023-05-10T11:06:30.784Z,7.97
2023-05-10T11:09:26.499Z,7.50
2023-05-10T11:12:18.729Z,9.67
2023-05-10T11:15:11.366Z,9.27
2023-05-10T11:18:19.161Z,7.35
2023-05-10T11:21:14.185Z,7.60
2023-05-10T11:24:14.982Z,8.65
2023-05-10T11:27:10.232Z,9.02
2023-05-10T11:30:04.955Z,8.23
2023-05-10T11:36:21.194Z,4.85
2023-05-10T11:39:14.036Z,6.80
2023-05-10T11:42:10.036Z,6.63
2023-05-10T11:45:11.030Z,8.40
2023-05-10T11:48:04.761Z,8.27
2023-05-10T11:50:58.064Z,5.55
2023-05-10T11:53:54.415Z,6.50
2023-05-10T11:56:46.881Z,6.28
2023-05-10T11:59:41.736Z,5.00
2023-05-10T12:02:36.498Z,6.50
2023-05-10T12:05:29.252Z,7.15
2023-05-10T12:08:24.744Z,9.82
2023-05-10T12:14:39.550Z,8.52
2023-05-10T12:17:32.030Z,8.60
2023-05-10T12:20:26.250Z,8.05
2023-05-10T12:23:19.295Z,9.35
2023-05-10T12:26:50.269Z,20.05
2023-05-10T12:29:45.767Z,14.60
2023-05-10T12:32:53.498Z,17.67
2023-05-10T12:35:47.468Z,19.17
2023-05-10T12:38:43.810Z,14.10
2023-05-10T12:41:30.668Z,10.88
2023-05-10T12:44:23.254Z,9.68
2023-05-10T12:47:17.335Z,12.38
2023-05-10T12:50:10.749Z,10.20
2023-05-10T12:53:02.916Z,9.88
2023-05-10T12:55:55.916Z,11.40
2023-05-10T12:58:49.294Z,11.75
2023-05-10T13:01:42.429Z,13.20
2023-05-10T13:04:38.501Z,11.80
2023-05-10T13:07:30.906Z,11.85
2023-05-10T13:10:24.782Z,10.63
2023-05-10T13:13:19.109Z,12.65
2023-05-10T13:16:12.156Z,12.80
2023-05-10T13:19:05.274Z,11.98
2023-05-10T13:25:06.949Z,12.02
2023-05-10T13:28:00.200Z,11.40
2023-05-10T13:30:53.213Z,8.95
2023-05-10T13:33:46.154Z,10.85
2023-05-10T13:36:39.760Z,9.80
2023-05-10T13:39:35.266Z,12.80
2023-05-10T13:42:29.442Z,13.77
2023-05-10T13:45:22.364Z,8.70
2023-05-10T13:48:14.958Z,14.52
2023-05-10T13:51:07.846Z,13.07
2023-05-10T13:53:59.638Z,18.75
2023-05-10T13:56:51.929Z,12.27
2023-05-10T13:59:46.407Z,9.73
2023-05-10T14:05:50.355Z,14.30
2023-05-10T14:08:43.897Z,13.93
2023-05-10T14:11:37.340Z,12.50
2023-05-10T14:14:30.449Z,8.75
2023-05-10T14:20:54.647Z,8.95
2023-05-10T14:23:47.146Z,8.02
2023-05-10T14:26:39.956Z,9.93
2023-05-10T14:29:32.894Z,7.35
2023-05-10T14:32:28.124Z,6.88
2023-05-10T14:35:21.076Z,7.45
2023-05-10T14:38:15.886Z,9.60
2023-05-10T14:41:06.290Z,8.43
2023-05-10T14:43:59.036Z,10.85
2023-05-10T14:46:52.725Z,9.60
2023-05-10T14:49:44.800Z,10.15
2023-05-10T14:52:37.339Z,11.13
2023-05-10T14:55:31.456Z,17.90
2023-05-10T15:01:57.072Z,14.60
2023-05-10T15:08:19.022Z,16.77
2023-05-10T15:11:50.247Z,14.05
2023-05-10T15:14:44.344Z,13.38
2023-05-10T15:17:37.485Z,16.83
2023-05-10T15:20:29.826Z,18.95
2023-05-10T15:23:22.961Z,15.45
2023-05-10T15:26:16.183Z,16.67
2023-05-10T15:29:35.105Z,14.50
2023-05-10T15:32:30.062Z,13.13
2023-05-10T15:35:23.184Z,14.40
2023-05-10T15:38:16.692Z,12.23
2023-05-10T15:41:09.093Z,12.80
2023-05-10T15:44:01.858Z,11.90
2023-05-10T15:46:53.963Z,15.00
2023-05-10T15:49:48.624Z,11.23
2023-05-10T15:52:41.018Z,9.57
2023-05-10T15:55:35.197Z,8.73
2023-05-10T15:58:27.708Z,8.25
2023-05-10T16:01:20.097Z,12.43
2023-05-10T16:04:12.851Z,9.15
2023-05-10T16:07:06.234Z,9.93
2023-05-10T16:09:58.807Z,12.38
2023-05-10T16:12:50.979Z,14.63
2023-05-10T16:15:48.090Z,11.13
2023-05-10T16:18:40.989Z,16.13
2023-05-10T16:21:34.462Z,13.90
2023-05-10T16:24:28.127Z,17.55
2023-05-10T16:30:33.351Z,18.02
2023-05-10T16:36:38.339Z,17.40
2023-05-10T16:42:44.677Z,17.42
2023-05-10T16:45:36.915Z,17.98
2023-05-10T16:48:30.317Z,17.67
2023-05-10T16:51:23.060Z,14.73
2023-05-10T16:54:17.161Z,19.10
2023-05-10T16:57:10.305Z,14.15
2023-05-10T17:00:04.785Z,10.57
2023-05-10T17:02:57.169Z,16.48
2023-05-10T17:06:01.576Z,17.65
2023-05-10T17:08:48.126Z,12.82
2023-05-10T17:11:42.012Z,13.85
2023-05-10T17:14:35.182Z,15.48
2023-05-10T17:17:29.264Z,17.83
2023-05-10T17:23:34.343Z,13.82
2023-05-10T17:26:27.500Z,10.30
2023-05-10T17:32:42.213Z,6.53
2023-05-10T17:38:56.168Z,5.57
2023-05-10T17:41:49.168Z,7.32
2023-05-10T17:44:50.710Z,6.28
2023-05-10T17:47:44.630Z,6.78
2023-05-10T17:50:37.230Z,5.63
2023-05-10T17:53:29.831Z,6.32
2023-05-10T17:59:28.859Z,9.80
2023-05-10T18:02:20.880Z,9.43
2023-05-10T18:05:27.054Z,7.80
2023-05-10T18:08:22.797Z,6.18
2023-05-10T18:14:40.926Z,7.00
2023-05-10T18:17:34.834Z,8.50
2023-05-10T18:20:29.639Z,8.00
2023-05-10T18:26:34.343Z,4.47
2023-05-10T18:29:27.178Z,7.00
2023-05-10T18:32:19.891Z,9.35
2023-05-10T18:35:12.629Z,10.07
2023-05-10T18:38:06.444Z,8.95
2023-05-10T18:40:58.802Z,6.35
2023-05-10T18:43:50.918Z,9.27
2023-05-10T18:46:43.856Z,11.55
2023-05-10T18:49:36.278Z,9.93
2023-05-10T18:55:35.210Z,11.45
2023-05-10T19:01:44.446Z,22.83
2023-05-10T19:04:37.284Z,27.02
2023-05-10T19:07:30.098Z,17.63
2023-05-10T19:10:23.379Z,9.38
2023-05-10T19:13:14.788Z,11.45
2023-05-10T19:16:13.008Z,17.53
2023-05-10T19:19:06.175Z,17.13
2023-05-10T19:25:12.938Z,13.35
2023-05-10T19:28:06.143Z,19.50
2023-05-10T19:34:10.726Z,15.35
2023-05-10T19:37:03.352Z,23.05
2023-05-10T19:39:56.149Z,23.85
2023-05-10T19:42:49.424Z,23.48
2023-05-10T19:49:03.144Z,37.95
2023-05-10T19:55:28.389Z,25.55
2023-05-10T20:02:07.344Z,24.30
2023-05-10T20:08:12.367Z,27.17
2023-05-10T20:11:06.755Z,31.17
2023-05-10T20:13:59.255Z,31.52
2023-05-10T20:16:52.132Z,30.20
2023-05-10T20:22:58.353Z,26.33
2023-05-10T20:35:18.619Z,36.40
2023-05-10T20:38:11.383Z,41.05
2023-05-10T20:41:04.304Z,41.45
2023-05-10T20:47:14.996Z,41.28
2023-05-10T20:50:09.073Z,40.83
2023-05-10T20:56:14.350Z,33.10
2023-05-10T20:59:07.051Z,36.30
2023-05-10T21:05:22.990Z,44.33
2023-05-10T21:08:15.980Z,46.97
2023-05-10T21:11:08.829Z,52.55
2023-05-10T21:14:01.048Z,49.35
2023-05-10T21:16:54.380Z,46.83
2023-05-10T21:19:47.216Z,57.13
2023-05-10T21:22:41.326Z,62.40
2023-05-10T21:25:33.962Z,54.85
2023-05-10T21:28:44.441Z,58.70
2023-05-10T21:31:34.387Z,56.90
2023-05-10T21:34:27.222Z,50.35
2023-05-10T21:37:20.190Z,48.08
2023-05-10T21:40:15.279Z,55.65
2023-05-10T21:43:08.185Z,53.55
2023-05-10T21:46:00.916Z,48.47
2023-05-10T21:48:54.104Z,55.95
2023-05-10T21:51:47.221Z,64.78
2023-05-10T21:54:40.083Z,60.50
2023-05-10T21:57:34.314Z,87.05
2023-05-10T22:00:26.852Z,73.00
2023-05-10T22:03:19.085Z,73.85
2023-05-10T22:06:12.130Z,61.35
2023-05-10T22:09:05.211Z,70.07
2023-05-10T22:11:58.244Z,68.30
2023-05-10T22:15:02.863Z,81.60
2023-05-10T22:18:02.045Z,69.35
2023-05-10T22:21:20.162Z,73.45
2023-05-10T22:24:13.375Z,65.15
2023-05-10T22:27:06.697Z,65.43
2023-05-10T22:33:12.719Z,64.47
2023-05-10T22:36:05.974Z,71.93
2023-05-10T22:38:59.091Z,75.45
2023-05-10T22:45:04.592Z,69.82
2023-05-10T22:51:14.774Z,82.63
2023-05-10T22:54:07.016Z,65.47
2023-05-10T22:57:00.139Z,64.20
2023-05-10T22:59:53.328Z,68.32
2023-05-10T23:02:46.230Z,60.22
2023-05-10T23:05:39.041Z,73.72
2023-05-10T23:08:33.263Z,67.15
2023-05-10T23:14:38.421Z,60.47
2023-05-10T23:17:30.900Z,65.10
2023-05-10T23:20:22.953Z,66.45
2023-05-10T23:23:16.558Z,62.88
2023-05-10T23:26:35.611Z,64.00
2023-05-10T23:29:28.230Z,56.58
2023-05-10T23:32:20.996Z,63.75
2023-05-10T23:35:14.050Z,67.50
2023-05-10T23:38:00.021Z,73.03
2023-05-10T23:40:48.922Z,77.13
2023-05-10T23:46:44.742Z,86.00
2023-05-10T23:49:30.760Z,75.00
2023-05-10T23:55:29.419Z,65.80
2023-05-10T23:58:15.572Z,69.07
